sensor_id;sensor_type;location;lat;lon;timestamp;temperature;humidity
516;DHT22;244;48.508;9.052;2023-07-29T00:02:01;18.60;34.80
516;DHT22;244;48.508;9.052;2023-07-29T00:04:28;18.60;33.80
516;DHT22;244;48.508;9.052;2023-07-29T00:06:55;18.50;34.00
516;DHT22;244;48.508;9.052;2023-07-29T00:09:22;18.50;34.10
516;DHT22;244;48.508;9.052;2023-07-29T00:11:48;18.50;34.40
516;DHT22;244;48.508;9.052;2023-07-29T00:14:17;18.50;34.40
516;DHT22;244;48.508;9.052;2023-07-29T00:16:43;18.50;34.20
516;DHT22;244;48.508;9.052;2023-07-29T00:19:10;18.60;34.20
516;DHT22;244;48.508;9.052;2023-07-29T00:21:37;18.60;34.10
516;DHT22;244;48.508;9.052;2023-07-29T00:24:04;18.50;33.90
516;DHT22;244;48.508;9.052;2023-07-29T00:26:31;18.60;33.90
516;DHT22;244;48.508;9.052;2023-07-29T00:28:58;18.50;33.80
516;DHT22;244;48.508;9.052;2023-07-29T00:31:26;18.50;33.80
516;DHT22;244;48.508;9.052;2023-07-29T00:33:53;18.50;33.80
516;DHT22;244;48.508;9.052;2023-07-29T00:36:20;18.50;33.80
516;DHT22;244;48.508;9.052;2023-07-29T00:38:47;18.50;33.90
516;DHT22;244;48.508;9.052;2023-07-29T00:41:14;18.50;33.90
516;DHT22;244;48.508;9.052;2023-07-29T00:43:42;18.50;33.90
516;DHT22;244;48.508;9.052;2023-07-29T00:46:09;18.50;33.90
516;DHT22;244;48.508;9.052;2023-07-29T00:48:39;18.50;33.90
516;DHT22;244;48.508;9.052;2023-07-29T00:51:07;18.50;33.90
516;DHT22;244;48.508;9.052;2023-07-29T00:53:34;18.50;34.00
516;DHT22;244;48.508;9.052;2023-07-29T00:56:01;18.40;34.60
516;DHT22;244;48.508;9.052;2023-07-29T00:58:27;18.40;34.30
516;DHT22;244;48.508;9.052;2023-07-29T01:00:55;18.40;34.30
516;DHT22;244;48.508;9.052;2023-07-29T01:03:25;18.40;34.10
516;DHT22;244;48.508;9.052;2023-07-29T01:06:01;18.40;34.10
516;DHT22;244;48.508;9.052;2023-07-29T01:08:38;18.40;34.20
516;DHT22;244;48.508;9.052;2023-07-29T01:11:22;18.40;34.10
516;DHT22;244;48.508;9.052;2023-07-29T01:13:58;18.40;34.30
516;DHT22;244;48.508;9.052;2023-07-29T01:16:30;18.40;34.30
516;DHT22;244;48.508;9.052;2023-07-29T01:18:59;18.40;34.30
516;DHT22;244;48.508;9.052;2023-07-29T01:21:29;18.40;34.30
516;DHT22;244;48.508;9.052;2023-07-29T01:23:59;18.40;34.20
516;DHT22;244;48.508;9.052;2023-07-29T01:26:26;18.40;34.20
516;DHT22;244;48.508;9.052;2023-07-29T01:28:55;18.40;34.30
516;DHT22;244;48.508;9.052;2023-07-29T01:31:29;18.40;35.00
516;DHT22;244;48.508;9.052;2023-07-29T01:33:59;18.40;34.90
516;DHT22;244;48.508;9.052;2023-07-29T01:36:29;18.40;34.10
516;DHT22;244;48.508;9.052;2023-07-29T01:39:02;18.40;34.90
516;DHT22;244;48.508;9.052;2023-07-29T01:41:30;18.50;35.10
516;DHT22;244;48.508;9.052;2023-07-29T01:43:57;18.40;34.30
516;DHT22;244;48.508;9.052;2023-07-29T01:46:25;18.40;35.00
516;DHT22;244;48.508;9.052;2023-07-29T01:48:52;18.40;34.30
516;DHT22;244;48.508;9.052;2023-07-29T01:51:19;18.40;34.30
516;DHT22;244;48.508;9.052;2023-07-29T01:53:47;18.40;34.30
516;DHT22;244;48.508;9.052;2023-07-29T01:56:15;18.50;34.30
516;DHT22;244;48.508;9.052;2023-07-29T01:58:42;18.50;34.30
516;DHT22;244;48.508;9.052;2023-07-29T02:01:09;18.50;34.20
516;DHT22;244;48.508;9.052;2023-07-29T02:03:36;18.40;34.10
516;DHT22;244;48.508;9.052;2023-07-29T02:06:03;18.40;34.10
516;DHT22;244;48.508;9.052;2023-07-29T02:08:30;18.40;34.10
516;DHT22;244;48.508;9.052;2023-07-29T02:10:57;18.40;34.10
516;DHT22;244;48.508;9.052;2023-07-29T02:13:25;18.40;34.30
516;DHT22;244;48.508;9.052;2023-07-29T02:15:52;18.40;34.30
516;DHT22;244;48.508;9.052;2023-07-29T02:18:19;18.40;34.30
516;DHT22;244;48.508;9.052;2023-07-29T02:20:46;18.40;34.20
516;DHT22;244;48.508;9.052;2023-07-29T02:23:15;18.40;34.10
516;DHT22;244;48.508;9.052;2023-07-29T02:25:42;18.40;34.10
516;DHT22;244;48.508;9.052;2023-07-29T02:28:09;18.40;34.10
516;DHT22;244;48.508;9.052;2023-07-29T02:30:41;18.40;34.10
516;DHT22;244;48.508;9.052;2023-07-29T02:33:10;18.40;34.10
516;DHT22;244;48.508;9.052;2023-07-29T02:35:36;18.40;34.20
516;DHT22;244;48.508;9.052;2023-07-29T02:38:03;18.40;34.20
516;DHT22;244;48.508;9.052;2023-07-29T02:40:30;18.40;34.20
516;DHT22;244;48.508;9.052;2023-07-29T02:42:57;18.40;34.90
516;DHT22;244;48.508;9.052;2023-07-29T02:45:24;18.40;34.10
516;DHT22;244;48.508;9.052;2023-07-29T02:47:52;18.40;34.10
516;DHT22;244;48.508;9.052;2023-07-29T02:50:20;18.40;34.30
516;DHT22;244;48.508;9.052;2023-07-29T02:52:46;18.40;34.30
516;DHT22;244;48.508;9.052;2023-07-29T02:55:13;18.40;34.30
516;DHT22;244;48.508;9.052;2023-07-29T02:57:40;18.40;34.20
516;DHT22;244;48.508;9.052;2023-07-29T03:00:08;18.40;34.20
516;DHT22;244;48.508;9.052;2023-07-29T03:02:35;18.40;34.30
516;DHT22;244;48.508;9.052;2023-07-29T03:05:04;18.40;34.30
516;DHT22;244;48.508;9.052;2023-07-29T03:07:31;18.40;34.30
516;DHT22;244;48.508;9.052;2023-07-29T03:09:58;18.40;34.20
516;DHT22;244;48.508;9.052;2023-07-29T03:12:25;18.40;34.30
516;DHT22;244;48.508;9.052;2023-07-29T03:14:52;18.40;34.70
516;DHT22;244;48.508;9.052;2023-07-29T03:17:19;18.40;34.10
516;DHT22;244;48.508;9.052;2023-07-29T03:19:46;18.40;35.00
516;DHT22;244;48.508;9.052;2023-07-29T03:22:14;18.40;34.20
516;DHT22;244;48.508;9.052;2023-07-29T03:24:41;18.40;34.30
516;DHT22;244;48.508;9.052;2023-07-29T03:27:08;18.40;34.30
516;DHT22;244;48.508;9.052;2023-07-29T03:29:36;18.40;34.20
516;DHT22;244;48.508;9.052;2023-07-29T03:32:03;18.40;34.90
516;DHT22;244;48.508;9.052;2023-07-29T03:34:30;18.30;33.90
516;DHT22;244;48.508;9.052;2023-07-29T03:36:57;18.30;33.90
516;DHT22;244;48.508;9.052;2023-07-29T03:39:25;18.30;33.90
516;DHT22;244;48.508;9.052;2023-07-29T03:41:52;18.30;34.80
516;DHT22;244;48.508;9.052;2023-07-29T03:44:19;18.30;34.20
516;DHT22;244;48.508;9.052;2023-07-29T03:46:46;18.20;34.10
516;DHT22;244;48.508;9.052;2023-07-29T03:49:13;18.30;34.30
516;DHT22;244;48.508;9.052;2023-07-29T03:51:39;18.30;34.20
516;DHT22;244;48.508;9.052;2023-07-29T03:54:06;18.30;34.20
516;DHT22;244;48.508;9.052;2023-07-29T03:56:35;18.30;34.30
516;DHT22;244;48.508;9.052;2023-07-29T03:59:05;18.30;35.00
516;DHT22;244;48.508;9.052;2023-07-29T04:01:32;18.30;35.00
516;DHT22;244;48.508;9.052;2023-07-29T04:03:59;18.30;34.20
516;DHT22;244;48.508;9.052;2023-07-29T04:06:26;18.30;34.30
516;DHT22;244;48.508;9.052;2023-07-29T04:08:53;18.30;34.30
516;DHT22;244;48.508;9.052;2023-07-29T04:11:20;18.30;34.20
516;DHT22;244;48.508;9.052;2023-07-29T04:13:48;18.30;34.20
516;DHT22;244;48.508;9.052;2023-07-29T04:16:15;18.30;35.00
516;DHT22;244;48.508;9.052;2023-07-29T04:18:43;18.30;35.00
516;DHT22;244;48.508;9.052;2023-07-29T04:21:10;18.30;34.20
516;DHT22;244;48.508;9.052;2023-07-29T04:23:37;18.30;34.90
516;DHT22;244;48.508;9.052;2023-07-29T04:26:04;18.30;35.00
516;DHT22;244;48.508;9.052;2023-07-29T04:28:31;18.30;34.20
516;DHT22;244;48.508;9.052;2023-07-29T04:30:59;18.30;34.20
516;DHT22;244;48.508;9.052;2023-07-29T04:33:26;18.30;34.30
516;DHT22;244;48.508;9.052;2023-07-29T04:35:53;18.30;34.60
516;DHT22;244;48.508;9.052;2023-07-29T04:38:19;18.20;34.70
516;DHT22;244;48.508;9.052;2023-07-29T04:40:48;18.30;34.70
516;DHT22;244;48.508;9.052;2023-07-29T04:43:15;18.30;34.60
516;DHT22;244;48.508;9.052;2023-07-29T04:45:43;18.30;34.60
516;DHT22;244;48.508;9.052;2023-07-29T04:48:11;18.30;35.30
516;DHT22;244;48.508;9.052;2023-07-29T04:50:38;18.30;34.40
516;DHT22;244;48.508;9.052;2023-07-29T04:53:05;18.30;34.40
516;DHT22;244;48.508;9.052;2023-07-29T04:55:32;18.40;35.40
516;DHT22;244;48.508;9.052;2023-07-29T04:57:58;18.40;34.60
516;DHT22;244;48.508;9.052;2023-07-29T05:00:26;18.40;34.60
516;DHT22;244;48.508;9.052;2023-07-29T05:02:53;18.40;34.50
516;DHT22;244;48.508;9.052;2023-07-29T05:05:21;18.30;34.40
516;DHT22;244;48.508;9.052;2023-07-29T05:07:48;18.30;34.70
516;DHT22;244;48.508;9.052;2023-07-29T05:10:15;18.30;35.00
516;DHT22;244;48.508;9.052;2023-07-29T05:12:42;18.30;35.10
516;DHT22;244;48.508;9.052;2023-07-29T05:15:10;18.30;35.20
516;DHT22;244;48.508;9.052;2023-07-29T05:17:37;18.30;35.20
516;DHT22;244;48.508;9.052;2023-07-29T05:20:05;18.40;35.30
516;DHT22;244;48.508;9.052;2023-07-29T05:22:33;18.40;35.10
516;DHT22;244;48.508;9.052;2023-07-29T05:25:00;18.40;35.10
516;DHT22;244;48.508;9.052;2023-07-29T05:27:27;18.40;35.10
516;DHT22;244;48.508;9.052;2023-07-29T05:29:54;18.40;36.00
516;DHT22;244;48.508;9.052;2023-07-29T05:32:21;18.50;35.30
516;DHT22;244;48.508;9.052;2023-07-29T05:34:48;18.50;35.30
516;DHT22;244;48.508;9.052;2023-07-29T05:37:15;18.50;35.60
516;DHT22;244;48.508;9.052;2023-07-29T05:39:43;18.50;36.70
516;DHT22;244;48.508;9.052;2023-07-29T05:42:10;18.60;36.40
516;DHT22;244;48.508;9.052;2023-07-29T05:44:36;18.70;36.40
516;DHT22;244;48.508;9.052;2023-07-29T05:47:04;18.80;36.30
516;DHT22;244;48.508;9.052;2023-07-29T05:49:31;18.90;36.20
516;DHT22;244;48.508;9.052;2023-07-29T05:51:57;18.90;36.90
516;DHT22;244;48.508;9.052;2023-07-29T05:54:25;19.00;36.90
516;DHT22;244;48.508;9.052;2023-07-29T05:56:53;19.00;35.90
516;DHT22;244;48.508;9.052;2023-07-29T05:59:20;19.10;36.00
516;DHT22;244;48.508;9.052;2023-07-29T06:01:46;19.20;36.10
516;DHT22;244;48.508;9.052;2023-07-29T06:04:13;19.20;36.10
516;DHT22;244;48.508;9.052;2023-07-29T06:06:40;19.30;36.10
516;DHT22;244;48.508;9.052;2023-07-29T06:09:07;19.30;35.90
516;DHT22;244;48.508;9.052;2023-07-29T06:11:34;19.40;35.90
516;DHT22;244;48.508;9.052;2023-07-29T06:14:02;19.40;36.50
516;DHT22;244;48.508;9.052;2023-07-29T06:16:29;19.40;36.50
516;DHT22;244;48.508;9.052;2023-07-29T06:18:57;19.40;35.70
516;DHT22;244;48.508;9.052;2023-07-29T06:21:23;19.50;35.70
516;DHT22;244;48.508;9.052;2023-07-29T06:23:50;19.50;35.70
516;DHT22;244;48.508;9.052;2023-07-29T06:26:17;19.60;36.60
516;DHT22;244;48.508;9.052;2023-07-29T06:28:44;19.60;35.70
516;DHT22;244;48.508;9.052;2023-07-29T06:31:12;19.60;35.60
516;DHT22;244;48.508;9.052;2023-07-29T06:33:39;19.60;35.60
516;DHT22;244;48.508;9.052;2023-07-29T06:36:06;19.70;35.90
516;DHT22;244;48.508;9.052;2023-07-29T06:38:33;19.80;36.00
516;DHT22;244;48.508;9.052;2023-07-29T06:41:00;19.90;37.00
516;DHT22;244;48.508;9.052;2023-07-29T06:43:27;20.00;36.10
516;DHT22;244;48.508;9.052;2023-07-29T06:45:54;20.10;36.10
516;DHT22;244;48.508;9.052;2023-07-29T06:48:22;20.10;35.80
516;DHT22;244;48.508;9.052;2023-07-29T06:50:49;20.00;36.50
516;DHT22;244;48.508;9.052;2023-07-29T06:53:16;20.00;35.30
516;DHT22;244;48.508;9.052;2023-07-29T06:55:43;19.90;35.80
516;DHT22;244;48.508;9.052;2023-07-29T06:58:10;19.70;34.90
516;DHT22;244;48.508;9.052;2023-07-29T07:00:37;19.60;34.90
516;DHT22;244;48.508;9.052;2023-07-29T07:03:04;19.50;35.00
516;DHT22;244;48.508;9.052;2023-07-29T07:05:32;19.40;35.20
516;DHT22;244;48.508;9.052;2023-07-29T07:07:59;19.30;36.10
516;DHT22;244;48.508;9.052;2023-07-29T07:10:26;19.30;35.60
516;DHT22;244;48.508;9.052;2023-07-29T07:12:53;19.30;35.80
516;DHT22;244;48.508;9.052;2023-07-29T07:15:20;19.30;36.70
516;DHT22;244;48.508;9.052;2023-07-29T07:17:46;19.40;36.10
516;DHT22;244;48.508;9.052;2023-07-29T07:20:13;19.40;37.00
516;DHT22;244;48.508;9.052;2023-07-29T07:22:41;19.50;37.20
516;DHT22;244;48.508;9.052;2023-07-29T07:25:08;19.50;36.40
516;DHT22;244;48.508;9.052;2023-07-29T07:27:37;19.60;36.40
516;DHT22;244;48.508;9.052;2023-07-29T07:30:04;19.70;36.50
516;DHT22;244;48.508;9.052;2023-07-29T07:32:31;19.80;36.70
516;DHT22;244;48.508;9.052;2023-07-29T07:34:58;19.90;36.80
516;DHT22;244;48.508;9.052;2023-07-29T07:37:25;20.00;37.00
516;DHT22;244;48.508;9.052;2023-07-29T07:39:53;20.10;37.00
516;DHT22;244;48.508;9.052;2023-07-29T07:42:20;20.20;37.10
516;DHT22;244;48.508;9.052;2023-07-29T07:44:47;20.40;37.20
516;DHT22;244;48.508;9.052;2023-07-29T07:47:14;20.40;36.90
516;DHT22;244;48.508;9.052;2023-07-29T07:49:40;20.50;36.80
516;DHT22;244;48.508;9.052;2023-07-29T07:52:07;20.60;36.70
516;DHT22;244;48.508;9.052;2023-07-29T07:54:34;20.60;36.50
516;DHT22;244;48.508;9.052;2023-07-29T07:57:03;20.70;36.40
516;DHT22;244;48.508;9.052;2023-07-29T07:59:30;20.70;36.40
516;DHT22;244;48.508;9.052;2023-07-29T08:01:57;20.70;36.60
516;DHT22;244;48.508;9.052;2023-07-29T08:04:23;20.80;36.50
516;DHT22;244;48.508;9.052;2023-07-29T08:06:50;20.90;37.30
516;DHT22;244;48.508;9.052;2023-07-29T08:09:17;20.90;37.30
516;DHT22;244;48.508;9.052;2023-07-29T08:11:44;20.90;36.50
516;DHT22;244;48.508;9.052;2023-07-29T08:14:12;20.90;37.30
516;DHT22;244;48.508;9.052;2023-07-29T08:16:39;20.80;36.40
516;DHT22;244;48.508;9.052;2023-07-29T08:19:06;20.70;36.40
516;DHT22;244;48.508;9.052;2023-07-29T08:21:35;20.70;36.50
516;DHT22;244;48.508;9.052;2023-07-29T08:24:02;20.70;36.40
516;DHT22;244;48.508;9.052;2023-07-29T08:26:29;20.60;36.50
516;DHT22;244;48.508;9.052;2023-07-29T08:28:55;20.60;37.10
516;DHT22;244;48.508;9.052;2023-07-29T08:31:24;20.80;38.20
516;DHT22;244;48.508;9.052;2023-07-29T08:33:50;20.90;37.40
516;DHT22;244;48.508;9.052;2023-07-29T08:36:17;21.00;37.30
516;DHT22;244;48.508;9.052;2023-07-29T08:38:44;21.00;37.30
516;DHT22;244;48.508;9.052;2023-07-29T08:41:14;21.00;37.30
516;DHT22;244;48.508;9.052;2023-07-29T08:43:46;21.10;38.10
516;DHT22;244;48.508;9.052;2023-07-29T08:46:16;21.10;37.30
516;DHT22;244;48.508;9.052;2023-07-29T08:48:44;21.20;37.70
516;DHT22;244;48.508;9.052;2023-07-29T08:51:12;21.30;37.70
516;DHT22;244;48.508;9.052;2023-07-29T08:53:39;21.40;37.50
516;DHT22;244;48.508;9.052;2023-07-29T08:56:07;21.40;37.60
516;DHT22;244;48.508;9.052;2023-07-29T08:58:35;21.50;37.50
516;DHT22;244;48.508;9.052;2023-07-29T09:01:01;21.50;37.50
516;DHT22;244;48.508;9.052;2023-07-29T09:03:28;21.50;37.50
516;DHT22;244;48.508;9.052;2023-07-29T09:05:58;21.50;37.60
516;DHT22;244;48.508;9.052;2023-07-29T09:08:26;21.50;37.70
516;DHT22;244;48.508;9.052;2023-07-29T09:10:53;21.50;37.90
516;DHT22;244;48.508;9.052;2023-07-29T09:13:20;21.60;38.20
516;DHT22;244;48.508;9.052;2023-07-29T09:15:47;21.60;38.30
516;DHT22;244;48.508;9.052;2023-07-29T09:18:16;21.60;38.10
516;DHT22;244;48.508;9.052;2023-07-29T09:20:43;21.60;38.10
516;DHT22;244;48.508;9.052;2023-07-29T09:23:11;21.70;39.20
516;DHT22;244;48.508;9.052;2023-07-29T09:25:39;21.80;38.70
516;DHT22;244;48.508;9.052;2023-07-29T09:28:11;22.00;38.70
516;DHT22;244;48.508;9.052;2023-07-29T09:30:38;22.00;38.40
516;DHT22;244;48.508;9.052;2023-07-29T09:33:05;22.10;38.60
516;DHT22;244;48.508;9.052;2023-07-29T09:35:33;22.20;38.70
516;DHT22;244;48.508;9.052;2023-07-29T09:38:01;22.30;38.90
516;DHT22;244;48.508;9.052;2023-07-29T09:40:34;22.40;39.00
516;DHT22;244;48.508;9.052;2023-07-29T09:43:01;22.50;38.80
516;DHT22;244;48.508;9.052;2023-07-29T09:45:29;22.50;38.60
516;DHT22;244;48.508;9.052;2023-07-29T09:47:57;22.70;39.00
516;DHT22;244;48.508;9.052;2023-07-29T09:50:24;22.80;38.70
516;DHT22;244;48.508;9.052;2023-07-29T09:52:52;22.80;38.80
516;DHT22;244;48.508;9.052;2023-07-29T09:55:21;22.80;37.50
516;DHT22;244;48.508;9.052;2023-07-29T09:57:53;22.80;37.10
516;DHT22;244;48.508;9.052;2023-07-29T10:00:20;22.80;37.70
516;DHT22;244;48.508;9.052;2023-07-29T10:02:48;22.80;36.60
516;DHT22;244;48.508;9.052;2023-07-29T10:05:15;22.80;36.30
516;DHT22;244;48.508;9.052;2023-07-29T10:07:42;22.80;36.40
516;DHT22;244;48.508;9.052;2023-07-29T10:10:10;22.80;36.40
516;DHT22;244;48.508;9.052;2023-07-29T10:12:38;22.80;36.50
516;DHT22;244;48.508;9.052;2023-07-29T10:15:09;23.00;36.80
516;DHT22;244;48.508;9.052;2023-07-29T10:17:38;23.00;36.70
516;DHT22;244;48.508;9.052;2023-07-29T10:20:06;23.10;37.00
516;DHT22;244;48.508;9.052;2023-07-29T10:22:37;23.10;35.70
516;DHT22;244;48.508;9.052;2023-07-29T10:25:07;23.20;35.00
516;DHT22;244;48.508;9.052;2023-07-29T10:27:42;23.40;35.00
516;DHT22;244;48.508;9.052;2023-07-29T10:30:11;23.60;34.50
516;DHT22;244;48.508;9.052;2023-07-29T10:32:40;23.70;33.90
516;DHT22;244;48.508;9.052;2023-07-29T10:35:08;23.90;33.70
516;DHT22;244;48.508;9.052;2023-07-29T10:37:35;24.10;33.70
516;DHT22;244;48.508;9.052;2023-07-29T10:40:07;24.30;33.70
516;DHT22;244;48.508;9.052;2023-07-29T10:42:34;24.50;33.50
516;DHT22;244;48.508;9.052;2023-07-29T10:45:18;24.60;32.50
516;DHT22;244;48.508;9.052;2023-07-29T10:47:45;24.70;32.00
516;DHT22;244;48.508;9.052;2023-07-29T10:50:17;24.80;31.50
516;DHT22;244;48.508;9.052;2023-07-29T10:52:49;24.90;31.00
516;DHT22;244;48.508;9.052;2023-07-29T10:55:27;25.00;30.70
516;DHT22;244;48.508;9.052;2023-07-29T10:58:08;25.10;30.30
516;DHT22;244;48.508;9.052;2023-07-29T11:00:38;25.10;30.60
516;DHT22;244;48.508;9.052;2023-07-29T11:03:06;25.10;29.40
516;DHT22;244;48.508;9.052;2023-07-29T11:05:44;25.20;28.90
516;DHT22;244;48.508;9.052;2023-07-29T11:08:23;25.30;28.50
516;DHT22;244;48.508;9.052;2023-07-29T11:11:04;25.50;28.40
516;DHT22;244;48.508;9.052;2023-07-29T11:13:32;25.70;28.60
516;DHT22;244;48.508;9.052;2023-07-29T11:16:01;25.80;28.00
516;DHT22;244;48.508;9.052;2023-07-29T11:18:30;25.90;28.10
516;DHT22;244;48.508;9.052;2023-07-29T11:20:58;26.00;27.40
516;DHT22;244;48.508;9.052;2023-07-29T11:23:30;26.00;26.30
516;DHT22;244;48.508;9.052;2023-07-29T11:25:57;26.00;25.50
516;DHT22;244;48.508;9.052;2023-07-29T11:28:25;26.10;26.50
516;DHT22;244;48.508;9.052;2023-07-29T11:30:52;26.20;27.00
516;DHT22;244;48.508;9.052;2023-07-29T11:33:23;26.30;26.70
516;DHT22;244;48.508;9.052;2023-07-29T11:35:50;26.30;25.70
516;DHT22;244;48.508;9.052;2023-07-29T11:38:18;26.40;26.90
516;DHT22;244;48.508;9.052;2023-07-29T11:40:54;26.40;26.30
516;DHT22;244;48.508;9.052;2023-07-29T11:43:22;26.30;26.70
516;DHT22;244;48.508;9.052;2023-07-29T11:45:49;26.30;26.90
516;DHT22;244;48.508;9.052;2023-07-29T11:48:16;26.30;26.90
516;DHT22;244;48.508;9.052;2023-07-29T11:50:45;26.30;26.30
516;DHT22;244;48.508;9.052;2023-07-29T11:53:12;26.30;26.10
516;DHT22;244;48.508;9.052;2023-07-29T11:55:39;26.30;26.30
516;DHT22;244;48.508;9.052;2023-07-29T11:58:05;26.40;25.70
516;DHT22;244;48.508;9.052;2023-07-29T12:00:32;26.50;25.80
516;DHT22;244;48.508;9.052;2023-07-29T12:02:59;26.70;26.20
516;DHT22;244;48.508;9.052;2023-07-29T12:05:27;26.80;25.70
516;DHT22;244;48.508;9.052;2023-07-29T12:07:55;26.80;24.80
516;DHT22;244;48.508;9.052;2023-07-29T12:10:22;26.90;25.30
516;DHT22;244;48.508;9.052;2023-07-29T12:12:50;27.10;25.60
516;DHT22;244;48.508;9.052;2023-07-29T12:15:23;27.30;26.20
516;DHT22;244;48.508;9.052;2023-07-29T12:17:53;27.30;25.50
516;DHT22;244;48.508;9.052;2023-07-29T12:20:21;27.40;25.70
516;DHT22;244;48.508;9.052;2023-07-29T12:22:52;27.50;25.00
516;DHT22;244;48.508;9.052;2023-07-29T12:25:21;27.50;25.30
516;DHT22;244;48.508;9.052;2023-07-29T12:27:48;27.40;25.10
516;DHT22;244;48.508;9.052;2023-07-29T12:30:15;27.40;25.40
516;DHT22;244;48.508;9.052;2023-07-29T12:32:46;27.50;25.00
516;DHT22;244;48.508;9.052;2023-07-29T12:35:13;27.50;25.30
516;DHT22;244;48.508;9.052;2023-07-29T12:37:40;27.40;25.10
516;DHT22;244;48.508;9.052;2023-07-29T12:40:21;27.40;25.00
516;DHT22;244;48.508;9.052;2023-07-29T12:42:49;27.50;25.40
516;DHT22;244;48.508;9.052;2023-07-29T12:45:16;27.60;25.70
516;DHT22;244;48.508;9.052;2023-07-29T12:47:44;27.60;25.50
516;DHT22;244;48.508;9.052;2023-07-29T12:50:11;27.70;25.50
516;DHT22;244;48.508;9.052;2023-07-29T12:52:38;27.70;25.20
516;DHT22;244;48.508;9.052;2023-07-29T12:55:05;27.80;25.60
516;DHT22;244;48.508;9.052;2023-07-29T12:57:35;27.80;25.60
516;DHT22;244;48.508;9.052;2023-07-29T13:00:03;27.80;25.50
516;DHT22;244;48.508;9.052;2023-07-29T13:02:30;27.80;25.40
516;DHT22;244;48.508;9.052;2023-07-29T13:04:57;27.80;25.50
516;DHT22;244;48.508;9.052;2023-07-29T13:07:24;27.70;24.60
516;DHT22;244;48.508;9.052;2023-07-29T13:09:51;27.70;24.20
516;DHT22;244;48.508;9.052;2023-07-29T13:12:18;27.70;24.50
516;DHT22;244;48.508;9.052;2023-07-29T13:14:46;27.70;24.10
516;DHT22;244;48.508;9.052;2023-07-29T13:17:13;27.70;23.80
516;DHT22;244;48.508;9.052;2023-07-29T13:19:40;27.80;23.90
516;DHT22;244;48.508;9.052;2023-07-29T13:22:07;27.80;23.60
516;DHT22;244;48.508;9.052;2023-07-29T13:24:34;27.80;23.50
516;DHT22;244;48.508;9.052;2023-07-29T13:27:01;27.90;24.10
516;DHT22;244;48.508;9.052;2023-07-29T13:29:27;27.90;23.50
516;DHT22;244;48.508;9.052;2023-07-29T13:31:56;27.90;23.20
516;DHT22;244;48.508;9.052;2023-07-29T13:34:23;27.90;23.50
516;DHT22;244;48.508;9.052;2023-07-29T13:36:49;27.90;23.00
516;DHT22;244;48.508;9.052;2023-07-29T13:39:16;27.90;22.90
516;DHT22;244;48.508;9.052;2023-07-29T13:41:43;27.80;22.60
516;DHT22;244;48.508;9.052;2023-07-29T13:44:10;27.80;22.00
516;DHT22;244;48.508;9.052;2023-07-29T13:46:37;27.80;21.10
516;DHT22;244;48.508;9.052;2023-07-29T13:49:05;27.80;20.10
516;DHT22;244;48.508;9.052;2023-07-29T13:51:32;27.70;20.40
516;DHT22;244;48.508;9.052;2023-07-29T13:53:59;27.70;19.90
516;DHT22;244;48.508;9.052;2023-07-29T13:56:26;27.60;19.50
516;DHT22;244;48.508;9.052;2023-07-29T13:58:53;27.60;19.70
516;DHT22;244;48.508;9.052;2023-07-29T14:01:20;27.60;19.40
516;DHT22;244;48.508;9.052;2023-07-29T14:03:46;27.60;19.30
516;DHT22;244;48.508;9.052;2023-07-29T14:06:15;27.60;19.20
516;DHT22;244;48.508;9.052;2023-07-29T14:08:42;27.60;19.40
516;DHT22;244;48.508;9.052;2023-07-29T14:11:09;27.60;19.40
516;DHT22;244;48.508;9.052;2023-07-29T14:13:36;27.60;19.30
516;DHT22;244;48.508;9.052;2023-07-29T14:16:03;27.60;19.20
516;DHT22;244;48.508;9.052;2023-07-29T14:18:30;27.60;19.00
516;DHT22;244;48.508;9.052;2023-07-29T14:20:57;27.60;19.10
516;DHT22;244;48.508;9.052;2023-07-29T14:23:26;27.70;18.60
516;DHT22;244;48.508;9.052;2023-07-29T14:25:53;27.80;17.70
516;DHT22;244;48.508;9.052;2023-07-29T14:28:20;28.00;17.60
516;DHT22;244;48.508;9.052;2023-07-29T14:30:47;28.10;17.70
516;DHT22;244;48.508;9.052;2023-07-29T14:33:14;28.10;17.70
516;DHT22;244;48.508;9.052;2023-07-29T14:35:41;28.20;17.10
516;DHT22;244;48.508;9.052;2023-07-29T14:38:08;28.20;16.50
516;DHT22;244;48.508;9.052;2023-07-29T14:40:36;28.20;16.30
516;DHT22;244;48.508;9.052;2023-07-29T14:43:03;28.20;16.20
516;DHT22;244;48.508;9.052;2023-07-29T14:45:30;28.20;15.70
516;DHT22;244;48.508;9.052;2023-07-29T14:47:57;28.20;15.50
516;DHT22;244;48.508;9.052;2023-07-29T14:50:24;28.20;15.30
516;DHT22;244;48.508;9.052;2023-07-29T14:52:51;28.20;15.20
516;DHT22;244;48.508;9.052;2023-07-29T14:55:18;28.20;14.90
516;DHT22;244;48.508;9.052;2023-07-29T14:57:47;28.10;14.80
516;DHT22;244;48.508;9.052;2023-07-29T15:00:14;28.10;15.10
516;DHT22;244;48.508;9.052;2023-07-29T15:02:41;27.90;14.30
516;DHT22;244;48.508;9.052;2023-07-29T15:05:08;27.80;14.20
516;DHT22;244;48.508;9.052;2023-07-29T15:07:35;27.80;14.10
516;DHT22;244;48.508;9.052;2023-07-29T15:10:02;27.70;14.10
516;DHT22;244;48.508;9.052;2023-07-29T15:12:29;27.80;14.70
516;DHT22;244;48.508;9.052;2023-07-29T15:14:57;27.80;14.40
516;DHT22;244;48.508;9.052;2023-07-29T15:17:24;27.80;13.70
516;DHT22;244;48.508;9.052;2023-07-29T15:19:51;27.70;13.60
516;DHT22;244;48.508;9.052;2023-07-29T15:22:18;27.70;13.50
516;DHT22;244;48.508;9.052;2023-07-29T15:24:45;27.60;13.10
516;DHT22;244;48.508;9.052;2023-07-29T15:27:12;27.60;13.00
516;DHT22;244;48.508;9.052;2023-07-29T15:29:39;27.60;13.00
516;DHT22;244;48.508;9.052;2023-07-29T15:32:08;27.50;12.90
516;DHT22;244;48.508;9.052;2023-07-29T15:34:35;27.50;12.60
516;DHT22;244;48.508;9.052;2023-07-29T15:37:02;27.50;12.60
516;DHT22;244;48.508;9.052;2023-07-29T15:39:31;27.50;12.50
516;DHT22;244;48.508;9.052;2023-07-29T15:41:58;27.50;12.50
516;DHT22;244;48.508;9.052;2023-07-29T15:44:25;27.60;12.60
516;DHT22;244;48.508;9.052;2023-07-29T15:46:52;27.70;12.30
516;DHT22;244;48.508;9.052;2023-07-29T15:49:23;27.80;12.10
516;DHT22;244;48.508;9.052;2023-07-29T15:51:50;27.80;12.00
516;DHT22;244;48.508;9.052;2023-07-29T15:54:19;27.90;11.60
516;DHT22;244;48.508;9.052;2023-07-29T15:56:46;27.90;11.40
516;DHT22;244;48.508;9.052;2023-07-29T15:59:13;27.90;11.40
516;DHT22;244;48.508;9.052;2023-07-29T16:01:40;27.80;11.20
516;DHT22;244;48.508;9.052;2023-07-29T16:04:08;27.80;11.30
516;DHT22;244;48.508;9.052;2023-07-29T16:06:36;27.70;11.20
516;DHT22;244;48.508;9.052;2023-07-29T16:09:03;27.60;11.20
516;DHT22;244;48.508;9.052;2023-07-29T16:11:31;27.50;11.80
516;DHT22;244;48.508;9.052;2023-07-29T16:13:59;27.50;11.80
516;DHT22;244;48.508;9.052;2023-07-29T16:16:27;27.40;11.00
516;DHT22;244;48.508;9.052;2023-07-29T16:18:54;27.20;11.10
516;DHT22;244;48.508;9.052;2023-07-29T16:21:21;27.10;12.00
516;DHT22;244;48.508;9.052;2023-07-29T16:23:49;27.00;12.30
516;DHT22;244;48.508;9.052;2023-07-29T16:26:18;26.90;11.80
516;DHT22;244;48.508;9.052;2023-07-29T16:28:45;26.70;11.90
516;DHT22;244;48.508;9.052;2023-07-29T16:31:13;26.60;12.00
516;DHT22;244;48.508;9.052;2023-07-29T16:33:40;26.60;12.10
516;DHT22;244;48.508;9.052;2023-07-29T16:36:07;26.50;12.30
516;DHT22;244;48.508;9.052;2023-07-29T16:38:34;26.50;12.40